Archival Weather

Sulphur Springs Muni

Sulphur Springs, Texas (KSLR)

Report from: Thursday, September 21, 2023 2:55 PM CDT
Current time: Saturday, February 24, 2024 9:50 AM CST

Current weather – Weather history – Daily summaries
Weather forecast

Temperature33.0°C (91.4°F)
Heat index34.6°C (94.3°F)
Dew point19.0°C (66.2°F)
Winds 10 kts (5.1 m/s, 11.5 mph) East-Southeast (120°)
Visibility10 mi. (16.1 km)
Clouds Ceiling: Broken clouds 4,800 ft. (1,463 m)
Altimeter30.01 in.Hg (1016 mB)
Relative humidity44 %
Density altitude2,249 ft. (686 m)
Remarks Fully automated report
Automated weather observing station with precipitation discriminator
Flight conditions Visual Meteorological Conditions
Raw dataKSLR 211955Z AUTO 12010KT 10SM BKN048 33/19 A3001 RMK AO2
An error has occurred. This application may no longer respond until reloaded. Reload 🗙